Santomera, Spain
Current Conditions -  °F | °C
As of 10:00 PM on Wednesday 17 Dec 2014 (Local Time) from LELC Reporting Station
Clear Clear  
Wind Chill: 52°   Ceiling: Unl
Heat Index: 52°   Visibility: 6mi
Dew Point: 46°   Wind: 8mph
Humidity: 82%   Direction: 260°W
Pressure: 30.24"   Gusts: NA
Location:  38.06°N, 1.05°W
Report Text: LELC 172100Z 26007KT CAVOK 11/08 Q1024 NOSIG
Loading
Personal Weather Stations






























Interactive Weather Map New forecast layout! Learn more

10-Day Weather Forecast

Advertisements
Track Severe Weather on mobile